sensor_id;sensor_type;location;lat;lon;timestamp;P1;durP1;ratioP1;P2;durP2;ratioP2
31043;SDS011;17710;52.520;13.352;2023-04-12T00:01:35;4.97;;;1.20;;
31043;SDS011;17710;52.520;13.352;2023-04-12T00:04:01;4.90;;;1.40;;
31043;SDS011;17710;52.520;13.352;2023-04-12T00:06:29;2.08;;;1.10;;
31043;SDS011;17710;52.520;13.352;2023-04-12T00:09:01;4.18;;;1.27;;
31043;SDS011;17710;52.520;13.352;2023-04-12T00:11:29;3.80;;;1.23;;
31043;SDS011;17710;52.520;13.352;2023-04-12T00:13:57;4.68;;;1.35;;
31043;SDS011;17710;52.520;13.352;2023-04-12T00:16:23;7.88;;;2.42;;
31043;SDS011;17710;52.520;13.352;2023-04-12T00:18:50;8.98;;;1.58;;
31043;SDS011;17710;52.520;13.352;2023-04-12T00:21:19;3.10;;;1.40;;
31043;SDS011;17710;52.520;13.352;2023-04-12T00:23:47;4.05;;;1.33;;
31043;SDS011;17710;52.520;13.352;2023-04-12T00:26:14;5.15;;;1.50;;
31043;SDS011;17710;52.520;13.352;2023-04-12T00:28:43;8.75;;;1.30;;
31043;SDS011;17710;52.520;13.352;2023-04-12T00:31:10;9.07;;;1.63;;
31043;SDS011;17710;52.520;13.352;2023-04-12T00:33:36;4.25;;;1.60;;
31043;SDS011;17710;52.520;13.352;2023-04-12T00:36:03;6.57;;;1.83;;
31043;SDS011;17710;52.520;13.352;2023-04-12T00:38:29;6.32;;;2.05;;
31043;SDS011;17710;52.520;13.352;2023-04-12T00:40:56;3.20;;;1.70;;
31043;SDS011;17710;52.520;13.352;2023-04-12T00:43:22;6.47;;;2.00;;
31043;SDS011;17710;52.520;13.352;2023-04-12T00:45:53;3.53;;;1.30;;
31043;SDS011;17710;52.520;13.352;2023-04-12T00:48:22;8.13;;;2.30;;
31043;SDS011;17710;52.520;13.352;2023-04-12T00:50:50;8.65;;;2.40;;
31043;SDS011;17710;52.520;13.352;2023-04-12T00:53:19;4.05;;;1.50;;
31043;SDS011;17710;52.520;13.352;2023-04-12T00:55:47;6.50;;;1.45;;
31043;SDS011;17710;52.520;13.352;2023-04-12T00:58:15;7.25;;;1.70;;
31043;SDS011;17710;52.520;13.352;2023-04-12T01:00:42;4.93;;;1.52;;
31043;SDS011;17710;52.520;13.352;2023-04-12T01:03:15;8.15;;;1.73;;
31043;SDS011;17710;52.520;13.352;2023-04-12T01:05:47;4.40;;;1.27;;
31043;SDS011;17710;52.520;13.352;2023-04-12T01:08:25;2.25;;;1.30;;
31043;SDS011;17710;52.520;13.352;2023-04-12T01:13:31;5.72;;;1.50;;
31043;SDS011;17710;52.520;13.352;2023-04-12T01:16:06;6.70;;;1.85;;
31043;SDS011;17710;52.520;13.352;2023-04-12T01:18:39;4.53;;;2.00;;
31043;SDS011;17710;52.520;13.352;2023-04-12T01:21:12;2.85;;;1.42;;
31043;SDS011;17710;52.520;13.352;2023-04-12T01:23:50;4.05;;;1.70;;
31043;SDS011;17710;52.520;13.352;2023-04-12T01:26:29;3.25;;;1.40;;
31043;SDS011;17710;52.520;13.352;2023-04-12T01:29:03;5.60;;;1.73;;
31043;SDS011;17710;52.520;13.352;2023-04-12T01:31:34;5.05;;;1.40;;
31043;SDS011;17710;52.520;13.352;2023-04-12T01:34:02;4.50;;;1.30;;
31043;SDS011;17710;52.520;13.352;2023-04-12T01:36:30;4.32;;;1.67;;
31043;SDS011;17710;52.520;13.352;2023-04-12T01:38:58;3.10;;;1.70;;
31043;SDS011;17710;52.520;13.352;2023-04-12T01:41:25;5.38;;;1.75;;
31043;SDS011;17710;52.520;13.352;2023-04-12T01:43:52;5.25;;;1.58;;
31043;SDS011;17710;52.520;13.352;2023-04-12T01:46:20;4.68;;;1.42;;
31043;SDS011;17710;52.520;13.352;2023-04-12T01:48:49;3.63;;;1.55;;
31043;SDS011;17710;52.520;13.352;2023-04-12T01:51:17;4.55;;;1.73;;
31043;SDS011;17710;52.520;13.352;2023-04-12T01:53:53;3.67;;;1.73;;
31043;SDS011;17710;52.520;13.352;2023-04-12T01:56:22;4.75;;;1.88;;
31043;SDS011;17710;52.520;13.352;2023-04-12T01:58:52;5.00;;;2.00;;
31043;SDS011;17710;52.520;13.352;2023-04-12T02:01:22;5.40;;;1.85;;
31043;SDS011;17710;52.520;13.352;2023-04-12T02:03:50;6.25;;;1.90;;
31043;SDS011;17710;52.520;13.352;2023-04-12T02:06:17;5.97;;;1.85;;
31043;SDS011;17710;52.520;13.352;2023-04-12T02:08:45;6.05;;;2.40;;
31043;SDS011;17710;52.520;13.352;2023-04-12T02:11:12;6.57;;;1.90;;
31043;SDS011;17710;52.520;13.352;2023-04-12T02:13:38;9.70;;;2.10;;
31043;SDS011;17710;52.520;13.352;2023-04-12T02:16:05;8.77;;;2.10;;
31043;SDS011;17710;52.520;13.352;2023-04-12T02:18:36;4.82;;;2.00;;
31043;SDS011;17710;52.520;13.352;2023-04-12T02:21:05;5.50;;;2.28;;
31043;SDS011;17710;52.520;13.352;2023-04-12T02:23:32;3.70;;;2.10;;
31043;SDS011;17710;52.520;13.352;2023-04-12T02:25:58;4.50;;;2.03;;
31043;SDS011;17710;52.520;13.352;2023-04-12T02:28:25;8.55;;;2.72;;
31043;SDS011;17710;52.520;13.352;2023-04-12T02:30:51;6.50;;;2.40;;
31043;SDS011;17710;52.520;13.352;2023-04-12T02:33:18;3.30;;;1.75;;
31043;SDS011;17710;52.520;13.352;2023-04-12T02:35:47;7.10;;;3.10;;
31043;SDS011;17710;52.520;13.352;2023-04-12T02:38:13;4.50;;;2.47;;
31043;SDS011;17710;52.520;13.352;2023-04-12T02:40:40;2.83;;;2.20;;
31043;SDS011;17710;52.520;13.352;2023-04-12T02:43:07;6.32;;;2.40;;
31043;SDS011;17710;52.520;13.352;2023-04-12T02:45:33;8.60;;;2.38;;
31043;SDS011;17710;52.520;13.352;2023-04-12T02:48:00;7.68;;;2.55;;
31043;SDS011;17710;52.520;13.352;2023-04-12T02:50:27;5.68;;;2.40;;
31043;SDS011;17710;52.520;13.352;2023-04-12T02:52:55;6.63;;;2.83;;
31043;SDS011;17710;52.520;13.352;2023-04-12T02:55:21;7.70;;;2.70;;
31043;SDS011;17710;52.520;13.352;2023-04-12T02:57:49;4.80;;;2.95;;
31043;SDS011;17710;52.520;13.352;2023-04-12T03:00:16;5.63;;;2.60;;
31043;SDS011;17710;52.520;13.352;2023-04-12T03:02:43;6.63;;;2.60;;
31043;SDS011;17710;52.520;13.352;2023-04-12T03:05:09;7.38;;;2.70;;
31043;SDS011;17710;52.520;13.352;2023-04-12T03:07:36;5.97;;;3.25;;
31043;SDS011;17710;52.520;13.352;2023-04-12T03:10:05;4.93;;;2.58;;
31043;SDS011;17710;52.520;13.352;2023-04-12T03:12:32;7.38;;;2.53;;
31043;SDS011;17710;52.520;13.352;2023-04-12T03:14:58;5.18;;;2.92;;
31043;SDS011;17710;52.520;13.352;2023-04-12T03:17:25;3.85;;;2.75;;
31043;SDS011;17710;52.520;13.352;2023-04-12T03:19:51;10.32;;;3.20;;
31043;SDS011;17710;52.520;13.352;2023-04-12T03:22:18;7.88;;;3.22;;
31043;SDS011;17710;52.520;13.352;2023-04-12T03:24:44;7.68;;;2.38;;
31043;SDS011;17710;52.520;13.352;2023-04-12T03:27:12;5.68;;;3.45;;
31043;SDS011;17710;52.520;13.352;2023-04-12T03:29:39;8.73;;;2.80;;
31043;SDS011;17710;52.520;13.352;2023-04-12T03:32:06;6.80;;;2.53;;
31043;SDS011;17710;52.520;13.352;2023-04-12T03:34:33;7.40;;;2.53;;
31043;SDS011;17710;52.520;13.352;2023-04-12T03:36:59;7.65;;;2.58;;
31043;SDS011;17710;52.520;13.352;2023-04-12T03:39:26;6.63;;;2.60;;
31043;SDS011;17710;52.520;13.352;2023-04-12T03:41:53;6.25;;;2.70;;
31043;SDS011;17710;52.520;13.352;2023-04-12T03:44:21;7.32;;;2.58;;
31043;SDS011;17710;52.520;13.352;2023-04-12T03:46:50;6.85;;;2.78;;
31043;SDS011;17710;52.520;13.352;2023-04-12T03:49:16;7.00;;;3.05;;
31043;SDS011;17710;52.520;13.352;2023-04-12T03:51:43;7.90;;;2.72;;
31043;SDS011;17710;52.520;13.352;2023-04-12T03:54:09;6.38;;;3.25;;
31043;SDS011;17710;52.520;13.352;2023-04-12T03:56:36;6.75;;;2.70;;
31043;SDS011;17710;52.520;13.352;2023-04-12T03:59:03;14.45;;;3.50;;
31043;SDS011;17710;52.520;13.352;2023-04-12T04:01:33;8.45;;;3.05;;
31043;SDS011;17710;52.520;13.352;2023-04-12T04:03:59;8.10;;;2.90;;
31043;SDS011;17710;52.520;13.352;2023-04-12T04:06:26;8.75;;;2.85;;
31043;SDS011;17710;52.520;13.352;2023-04-12T04:08:54;8.18;;;3.05;;
31043;SDS011;17710;52.520;13.352;2023-04-12T04:11:20;5.22;;;2.88;;
31043;SDS011;17710;52.520;13.352;2023-04-12T04:13:47;5.00;;;2.67;;
31043;SDS011;17710;52.520;13.352;2023-04-12T04:16:13;8.23;;;3.00;;
31043;SDS011;17710;52.520;13.352;2023-04-12T04:18:41;6.85;;;2.75;;
31043;SDS011;17710;52.520;13.352;2023-04-12T04:21:07;6.88;;;3.25;;
31043;SDS011;17710;52.520;13.352;2023-04-12T04:23:33;10.73;;;3.00;;
31043;SDS011;17710;52.520;13.352;2023-04-12T04:26:02;3.80;;;2.58;;
31043;SDS011;17710;52.520;13.352;2023-04-12T04:28:30;6.85;;;2.90;;
31043;SDS011;17710;52.520;13.352;2023-04-12T04:30:58;8.75;;;3.00;;
31043;SDS011;17710;52.520;13.352;2023-04-12T04:33:28;8.77;;;3.38;;
31043;SDS011;17710;52.520;13.352;2023-04-12T04:35:56;10.40;;;3.40;;
31043;SDS011;17710;52.520;13.352;2023-04-12T04:38:22;5.72;;;2.70;;
31043;SDS011;17710;52.520;13.352;2023-04-12T04:40:51;6.35;;;3.22;;
31043;SDS011;17710;52.520;13.352;2023-04-12T04:43:18;7.20;;;2.80;;
31043;SDS011;17710;52.520;13.352;2023-04-12T04:45:45;6.72;;;3.42;;
31043;SDS011;17710;52.520;13.352;2023-04-12T04:48:13;6.65;;;3.15;;
31043;SDS011;17710;52.520;13.352;2023-04-12T04:50:40;11.57;;;3.83;;
31043;SDS011;17710;52.520;13.352;2023-04-12T04:53:09;8.77;;;3.22;;
31043;SDS011;17710;52.520;13.352;2023-04-12T04:55:35;7.13;;;3.83;;
31043;SDS011;17710;52.520;13.352;2023-04-12T04:58:02;8.35;;;3.33;;
31043;SDS011;17710;52.520;13.352;2023-04-12T05:00:28;10.85;;;3.40;;
31043;SDS011;17710;52.520;13.352;2023-04-12T05:02:55;8.65;;;3.20;;
31043;SDS011;17710;52.520;13.352;2023-04-12T05:05:21;7.10;;;3.15;;
31043;SDS011;17710;52.520;13.352;2023-04-12T05:07:48;7.28;;;3.33;;
31043;SDS011;17710;52.520;13.352;2023-04-12T05:10:16;12.75;;;3.58;;
31043;SDS011;17710;52.520;13.352;2023-04-12T05:12:42;9.35;;;3.83;;
31043;SDS011;17710;52.520;13.352;2023-04-12T05:15:09;8.07;;;3.47;;
31043;SDS011;17710;52.520;13.352;2023-04-12T05:17:35;9.63;;;3.80;;
31043;SDS011;17710;52.520;13.352;2023-04-12T05:20:02;5.60;;;3.53;;
31043;SDS011;17710;52.520;13.352;2023-04-12T05:22:32;8.77;;;3.70;;
31043;SDS011;17710;52.520;13.352;2023-04-12T05:24:59;11.02;;;3.88;;
31043;SDS011;17710;52.520;13.352;2023-04-12T05:27:28;8.43;;;3.90;;
31043;SDS011;17710;52.520;13.352;2023-04-12T05:29:55;8.85;;;3.47;;
31043;SDS011;17710;52.520;13.352;2023-04-12T05:32:21;7.70;;;3.67;;
31043;SDS011;17710;52.520;13.352;2023-04-12T05:34:49;6.78;;;3.42;;
31043;SDS011;17710;52.520;13.352;2023-04-12T05:37:16;9.80;;;4.43;;
31043;SDS011;17710;52.520;13.352;2023-04-12T05:39:42;7.35;;;3.40;;
31043;SDS011;17710;52.520;13.352;2023-04-12T05:42:09;7.65;;;3.58;;
31043;SDS011;17710;52.520;13.352;2023-04-12T05:44:37;7.97;;;3.83;;
31043;SDS011;17710;52.520;13.352;2023-04-12T05:47:04;7.53;;;3.80;;
31043;SDS011;17710;52.520;13.352;2023-04-12T05:49:30;7.13;;;4.22;;
31043;SDS011;17710;52.520;13.352;2023-04-12T05:51:57;10.10;;;3.58;;
31043;SDS011;17710;52.520;13.352;2023-04-12T05:54:23;9.77;;;3.92;;
31043;SDS011;17710;52.520;13.352;2023-04-12T05:56:50;10.93;;;3.92;;
31043;SDS011;17710;52.520;13.352;2023-04-12T05:59:16;7.90;;;3.80;;
31043;SDS011;17710;52.520;13.352;2023-04-12T06:01:45;15.15;;;4.25;;
31043;SDS011;17710;52.520;13.352;2023-04-12T06:04:11;15.00;;;4.00;;
31043;SDS011;17710;52.520;13.352;2023-04-12T06:06:38;8.80;;;3.60;;
31043;SDS011;17710;52.520;13.352;2023-04-12T06:09:05;6.05;;;3.75;;
31043;SDS011;17710;52.520;13.352;2023-04-12T06:11:31;8.65;;;3.85;;
31043;SDS011;17710;52.520;13.352;2023-04-12T06:13:58;9.15;;;3.58;;
31043;SDS011;17710;52.520;13.352;2023-04-12T06:16:25;6.40;;;3.03;;
31043;SDS011;17710;52.520;13.352;2023-04-12T06:18:52;12.70;;;3.78;;
31043;SDS011;17710;52.520;13.352;2023-04-12T06:21:25;6.93;;;3.50;;
31043;SDS011;17710;52.520;13.352;2023-04-12T06:24:01;5.38;;;3.20;;
31043;SDS011;17710;52.520;13.352;2023-04-12T06:26:27;9.77;;;3.13;;
31043;SDS011;17710;52.520;13.352;2023-04-12T06:28:53;9.63;;;3.60;;
31043;SDS011;17710;52.520;13.352;2023-04-12T06:31:20;9.32;;;3.45;;
31043;SDS011;17710;52.520;13.352;2023-04-12T06:33:46;9.75;;;3.03;;
31043;SDS011;17710;52.520;13.352;2023-04-12T06:36:15;9.15;;;3.22;;
31043;SDS011;17710;52.520;13.352;2023-04-12T06:38:42;7.00;;;2.90;;
31043;SDS011;17710;52.520;13.352;2023-04-12T06:41:08;7.93;;;2.92;;
31043;SDS011;17710;52.520;13.352;2023-04-12T06:43:35;6.05;;;2.78;;
31043;SDS011;17710;52.520;13.352;2023-04-12T06:46:02;7.20;;;2.38;;
31043;SDS011;17710;52.520;13.352;2023-04-12T06:48:28;4.88;;;2.63;;
31043;SDS011;17710;52.520;13.352;2023-04-12T06:50:55;9.18;;;3.10;;
31043;SDS011;17710;52.520;13.352;2023-04-12T06:53:23;9.32;;;2.90;;
31043;SDS011;17710;52.520;13.352;2023-04-12T06:55:49;8.45;;;2.78;;
31043;SDS011;17710;52.520;13.352;2023-04-12T06:58:19;9.55;;;2.80;;
31043;SDS011;17710;52.520;13.352;2023-04-12T07:00:45;5.88;;;2.47;;
31043;SDS011;17710;52.520;13.352;2023-04-12T07:03:12;16.10;;;3.58;;
31043;SDS011;17710;52.520;13.352;2023-04-12T07:05:38;4.32;;;2.10;;
31043;SDS011;17710;52.520;13.352;2023-04-12T07:08:06;7.00;;;2.35;;
31043;SDS011;17710;52.520;13.352;2023-04-12T07:10:34;6.72;;;2.30;;
31043;SDS011;17710;52.520;13.352;2023-04-12T07:13:00;10.40;;;2.40;;
31043;SDS011;17710;52.520;13.352;2023-04-12T07:15:31;9.32;;;2.53;;
31043;SDS011;17710;52.520;13.352;2023-04-12T07:17:57;5.38;;;2.65;;
31043;SDS011;17710;52.520;13.352;2023-04-12T07:20:23;6.25;;;2.05;;
31043;SDS011;17710;52.520;13.352;2023-04-12T07:22:50;5.82;;;2.47;;
31043;SDS011;17710;52.520;13.352;2023-04-12T07:25:16;6.85;;;2.35;;
31043;SDS011;17710;52.520;13.352;2023-04-12T07:27:45;6.35;;;2.50;;
31043;SDS011;17710;52.520;13.352;2023-04-12T07:30:12;5.10;;;1.95;;
31043;SDS011;17710;52.520;13.352;2023-04-12T07:32:38;6.88;;;2.38;;
31043;SDS011;17710;52.520;13.352;2023-04-12T07:35:05;10.73;;;2.22;;
31043;SDS011;17710;52.520;13.352;2023-04-12T07:37:32;9.93;;;2.22;;
31043;SDS011;17710;52.520;13.352;2023-04-12T07:39:58;6.55;;;2.30;;
31043;SDS011;17710;52.520;13.352;2023-04-12T07:42:25;7.82;;;2.17;;
31043;SDS011;17710;52.520;13.352;2023-04-12T07:44:53;3.42;;;2.05;;
31043;SDS011;17710;52.520;13.352;2023-04-12T07:47:20;9.93;;;2.40;;
31043;SDS011;17710;52.520;13.352;2023-04-12T07:49:46;8.07;;;2.00;;
31043;SDS011;17710;52.520;13.352;2023-04-12T07:52:13;8.82;;;2.05;;
31043;SDS011;17710;52.520;13.352;2023-04-12T07:54:40;8.32;;;2.08;;
31043;SDS011;17710;52.520;13.352;2023-04-12T07:57:07;4.43;;;1.65;;
31043;SDS011;17710;52.520;13.352;2023-04-12T07:59:33;7.10;;;1.58;;
31043;SDS011;17710;52.520;13.352;2023-04-12T08:02:01;8.55;;;2.50;;
31043;SDS011;17710;52.520;13.352;2023-04-12T08:04:30;5.20;;;1.77;;
31043;SDS011;17710;52.520;13.352;2023-04-12T08:06:56;10.23;;;2.10;;
31043;SDS011;17710;52.520;13.352;2023-04-12T08:09:23;7.95;;;1.70;;
31043;SDS011;17710;52.520;13.352;2023-04-12T08:11:50;6.43;;;1.65;;
31043;SDS011;17710;52.520;13.352;2023-04-12T08:14:16;7.38;;;1.88;;
31043;SDS011;17710;52.520;13.352;2023-04-12T08:16:42;4.20;;;1.30;;
31043;SDS011;17710;52.520;13.352;2023-04-12T08:19:10;4.68;;;1.25;;
31043;SDS011;17710;52.520;13.352;2023-04-12T08:21:37;5.88;;;1.70;;
31043;SDS011;17710;52.520;13.352;2023-04-12T08:24:04;3.38;;;0.70;;
31043;SDS011;17710;52.520;13.352;2023-04-12T08:26:30;5.05;;;1.35;;
31043;SDS011;17710;52.520;13.352;2023-04-12T08:28:57;4.15;;;1.20;;
31043;SDS011;17710;52.520;13.352;2023-04-12T08:31:23;3.08;;;1.27;;
31043;SDS011;17710;52.520;13.352;2023-04-12T08:33:50;5.75;;;1.20;;
31043;SDS011;17710;52.520;13.352;2023-04-12T08:36:17;3.30;;;1.08;;
31043;SDS011;17710;52.520;13.352;2023-04-12T08:38:44;8.82;;;1.15;;
31043;SDS011;17710;52.520;13.352;2023-04-12T08:41:10;4.53;;;0.90;;
31043;SDS011;17710;52.520;13.352;2023-04-12T08:43:37;5.32;;;1.08;;
31043;SDS011;17710;52.520;13.352;2023-04-12T08:46:09;4.70;;;1.08;;
31043;SDS011;17710;52.520;13.352;2023-04-12T08:48:37;5.40;;;1.48;;
31043;SDS011;17710;52.520;13.352;2023-04-12T08:51:06;4.78;;;1.00;;
31043;SDS011;17710;52.520;13.352;2023-04-12T08:53:35;4.03;;;0.98;;
31043;SDS011;17710;52.520;13.352;2023-04-12T08:56:05;5.40;;;1.00;;
31043;SDS011;17710;52.520;13.352;2023-04-12T08:58:32;5.88;;;0.95;;
31043;SDS011;17710;52.520;13.352;2023-04-12T09:00:59;4.45;;;0.80;;
31043;SDS011;17710;52.520;13.352;2023-04-12T09:03:25;7.70;;;0.93;;
31043;SDS011;17710;52.520;13.352;2023-04-12T09:05:53;3.45;;;0.85;;
31043;SDS011;17710;52.520;13.352;2023-04-12T09:08:20;10.13;;;1.20;;
31043;SDS011;17710;52.520;13.352;2023-04-12T09:10:48;3.38;;;0.85;;
31043;SDS011;17710;52.520;13.352;2023-04-12T09:13:14;6.53;;;0.98;;
31043;SDS011;17710;52.520;13.352;2023-04-12T09:15:47;5.55;;;1.65;;
31043;SDS011;17710;52.520;13.352;2023-04-12T09:18:13;7.03;;;1.77;;
31043;SDS011;17710;52.520;13.352;2023-04-12T09:20:40;3.95;;;1.02;;
31043;SDS011;17710;52.520;13.352;2023-04-12T09:23:15;1.70;;;0.82;;
31043;SDS011;17710;52.520;13.352;2023-04-12T09:25:43;6.32;;;1.02;;
31043;SDS011;17710;52.520;13.352;2023-04-12T09:28:23;3.47;;;0.85;;
31043;SDS011;17710;52.520;13.352;2023-04-12T09:30:51;7.78;;;0.95;;
31043;SDS011;17710;52.520;13.352;2023-04-12T09:33:19;7.55;;;0.90;;
31043;SDS011;17710;52.520;13.352;2023-04-12T09:35:46;2.90;;;1.10;;
31043;SDS011;17710;52.520;13.352;2023-04-12T09:38:13;4.35;;;1.30;;
31043;SDS011;17710;52.520;13.352;2023-04-12T09:40:40;4.60;;;1.17;;
31043;SDS011;17710;52.520;13.352;2023-04-12T09:43:06;6.97;;;1.52;;
31043;SDS011;17710;52.520;13.352;2023-04-12T09:45:35;7.10;;;1.40;;
31043;SDS011;17710;52.520;13.352;2023-04-12T09:48:03;5.18;;;1.52;;
31043;SDS011;17710;52.520;13.352;2023-04-12T09:50:31;4.18;;;1.42;;
31043;SDS011;17710;52.520;13.352;2023-04-12T09:52:58;6.85;;;1.75;;
31043;SDS011;17710;52.520;13.352;2023-04-12T09:55:27;1.77;;;1.10;;
31043;SDS011;17710;52.520;13.352;2023-04-12T09:57:55;3.83;;;0.90;;
31043;SDS011;17710;52.520;13.352;2023-04-12T10:00:25;4.60;;;1.30;;
31043;SDS011;17710;52.520;13.352;2023-04-12T10:02:54;3.97;;;1.23;;
31043;SDS011;17710;52.520;13.352;2023-04-12T10:05:21;5.53;;;1.20;;
31043;SDS011;17710;52.520;13.352;2023-04-12T10:07:50;2.50;;;1.00;;
31043;SDS011;17710;52.520;13.352;2023-04-12T10:10:17;5.57;;;1.50;;
31043;SDS011;17710;52.520;13.352;2023-04-12T10:12:45;6.20;;;1.23;;
31043;SDS011;17710;52.520;13.352;2023-04-12T10:15:13;14.88;;;1.85;;
31043;SDS011;17710;52.520;13.352;2023-04-12T10:17:42;6.32;;;1.30;;
31043;SDS011;17710;52.520;13.352;2023-04-12T10:20:11;9.35;;;1.23;;
31043;SDS011;17710;52.520;13.352;2023-04-12T10:22:39;5.28;;;1.23;;
31043;SDS011;17710;52.520;13.352;2023-04-12T10:25:10;2.88;;;1.10;;
31043;SDS011;17710;52.520;13.352;2023-04-12T10:27:38;5.70;;;0.93;;
31043;SDS011;17710;52.520;13.352;2023-04-12T10:30:21;6.15;;;1.10;;
31043;SDS011;17710;52.520;13.352;2023-04-12T10:35:50;3.70;;;1.20;;
31043;SDS011;17710;52.520;13.352;2023-04-12T10:38:21;4.85;;;1.30;;
31043;SDS011;17710;52.520;13.352;2023-04-12T10:41:10;7.40;;;1.30;;
31043;SDS011;17710;52.520;13.352;2023-04-12T10:43:43;4.47;;;1.02;;
31043;SDS011;17710;52.520;13.352;2023-04-12T10:49:15;5.30;;;1.05;;
31043;SDS011;17710;52.520;13.352;2023-04-12T10:54:37;6.47;;;1.20;;
31043;SDS011;17710;52.520;13.352;2023-04-12T10:57:04;4.55;;;1.17;;
31043;SDS011;17710;52.520;13.352;2023-04-12T11:02:16;8.13;;;1.42;;
31043;SDS011;17710;52.520;13.352;2023-04-12T11:07:43;4.15;;;1.30;;
31043;SDS011;17710;52.520;13.352;2023-04-12T11:10:14;7.18;;;1.23;;
31043;SDS011;17710;52.520;13.352;2023-04-12T11:12:41;5.53;;;1.40;;
31043;SDS011;17710;52.520;13.352;2023-04-12T11:15:14;5.50;;;1.33;;
31043;SDS011;17710;52.520;13.352;2023-04-12T11:17:40;6.35;;;1.35;;
31043;SDS011;17710;52.520;13.352;2023-04-12T11:20:09;6.18;;;1.50;;
31043;SDS011;17710;52.520;13.352;2023-04-12T11:22:36;10.73;;;1.30;;
31043;SDS011;17710;52.520;13.352;2023-04-12T11:25:05;3.58;;;1.10;;
31043;SDS011;17710;52.520;13.352;2023-04-12T11:27:32;11.15;;;1.20;;
31043;SDS011;17710;52.520;13.352;2023-04-12T11:29:58;3.30;;;1.17;;
31043;SDS011;17710;52.520;13.352;2023-04-12T11:32:26;5.45;;;1.08;;
31043;SDS011;17710;52.520;13.352;2023-04-12T11:34:54;4.78;;;1.23;;
31043;SDS011;17710;52.520;13.352;2023-04-12T11:37:22;3.70;;;0.98;;
31043;SDS011;17710;52.520;13.352;2023-04-12T11:39:51;7.75;;;1.30;;
31043;SDS011;17710;52.520;13.352;2023-04-12T11:42:22;5.60;;;1.20;;
31043;SDS011;17710;52.520;13.352;2023-04-12T11:44:50;8.25;;;1.10;;
31043;SDS011;17710;52.520;13.352;2023-04-12T11:47:18;4.65;;;1.05;;
31043;SDS011;17710;52.520;13.352;2023-04-12T11:49:47;6.47;;;1.60;;
31043;SDS011;17710;52.520;13.352;2023-04-12T11:52:15;3.97;;;1.15;;
31043;SDS011;17710;52.520;13.352;2023-04-12T11:54:42;4.80;;;1.58;;
31043;SDS011;17710;52.520;13.352;2023-04-12T11:57:10;4.47;;;0.90;;
31043;SDS011;17710;52.520;13.352;2023-04-12T11:59:43;3.70;;;1.00;;
31043;SDS011;17710;52.520;13.352;2023-04-12T12:02:10;5.75;;;1.25;;
31043;SDS011;17710;52.520;13.352;2023-04-12T12:04:37;8.60;;;1.63;;
31043;SDS011;17710;52.520;13.352;2023-04-12T12:07:05;5.32;;;1.15;;
31043;SDS011;17710;52.520;13.352;2023-04-12T12:09:32;9.63;;;1.08;;
31043;SDS011;17710;52.520;13.352;2023-04-12T12:11:59;9.98;;;1.65;;
31043;SDS011;17710;52.520;13.352;2023-04-12T12:14:26;5.85;;;1.20;;
31043;SDS011;17710;52.520;13.352;2023-04-12T12:16:54;5.18;;;1.10;;
31043;SDS011;17710;52.520;13.352;2023-04-12T12:19:31;3.15;;;0.90;;
31043;SDS011;17710;52.520;13.352;2023-04-12T12:22:11;4.72;;;1.00;;
31043;SDS011;17710;52.520;13.352;2023-04-12T12:24:43;5.85;;;1.25;;
31043;SDS011;17710;52.520;13.352;2023-04-12T12:27:11;5.40;;;0.90;;
31043;SDS011;17710;52.520;13.352;2023-04-12T12:29:38;3.85;;;1.20;;
31043;SDS011;17710;52.520;13.352;2023-04-12T12:32:12;7.53;;;1.33;;
31043;SDS011;17710;52.520;13.352;2023-04-12T12:34:39;4.05;;;1.17;;
31043;SDS011;17710;52.520;13.352;2023-04-12T12:37:06;4.95;;;1.10;;
31043;SDS011;17710;52.520;13.352;2023-04-12T12:39:34;5.20;;;1.10;;
31043;SDS011;17710;52.520;13.352;2023-04-12T12:42:01;6.47;;;1.30;;
31043;SDS011;17710;52.520;13.352;2023-04-12T12:44:29;6.38;;;1.40;;
31043;SDS011;17710;52.520;13.352;2023-04-12T12:46:57;6.93;;;1.60;;
31043;SDS011;17710;52.520;13.352;2023-04-12T12:49:26;3.60;;;1.00;;
31043;SDS011;17710;52.520;13.352;2023-04-12T12:51:52;4.95;;;1.10;;
31043;SDS011;17710;52.520;13.352;2023-04-12T12:54:19;11.50;;;1.23;;
31043;SDS011;17710;52.520;13.352;2023-04-12T12:56:45;5.55;;;1.40;;
31043;SDS011;17710;52.520;13.352;2023-04-12T12:59:12;5.18;;;1.13;;
31043;SDS011;17710;52.520;13.352;2023-04-12T13:01:38;3.28;;;1.00;;
31043;SDS011;17710;52.520;13.352;2023-04-12T13:04:04;7.65;;;1.38;;
31043;SDS011;17710;52.520;13.352;2023-04-12T13:06:32;4.15;;;0.98;;
31043;SDS011;17710;52.520;13.352;2023-04-12T13:08:59;7.40;;;1.15;;
31043;SDS011;17710;52.520;13.352;2023-04-12T13:11:25;5.40;;;1.20;;
31043;SDS011;17710;52.520;13.352;2023-04-12T13:13:51;3.60;;;1.08;;
31043;SDS011;17710;52.520;13.352;2023-04-12T13:16:18;7.88;;;1.17;;
31043;SDS011;17710;52.520;13.352;2023-04-12T13:18:44;8.30;;;1.63;;
31043;SDS011;17710;52.520;13.352;2023-04-12T13:21:11;6.03;;;1.63;;
31043;SDS011;17710;52.520;13.352;2023-04-12T13:23:38;3.45;;;1.20;;
31043;SDS011;17710;52.520;13.352;2023-04-12T13:26:05;5.78;;;1.15;;
31043;SDS011;17710;52.520;13.352;2023-04-12T13:28:32;4.03;;;1.05;;
31043;SDS011;17710;52.520;13.352;2023-04-12T13:30:58;3.92;;;1.10;;
31043;SDS011;17710;52.520;13.352;2023-04-12T13:33:25;3.70;;;1.08;;
31043;SDS011;17710;52.520;13.352;2023-04-12T13:35:51;7.88;;;1.02;;
31043;SDS011;17710;52.520;13.352;2023-04-12T13:38:18;3.80;;;1.13;;
31043;SDS011;17710;52.520;13.352;2023-04-12T13:40:46;4.70;;;1.15;;
31043;SDS011;17710;52.520;13.352;2023-04-12T13:43:12;2.47;;;1.10;;
31043;SDS011;17710;52.520;13.352;2023-04-12T13:45:39;6.43;;;1.15;;
31043;SDS011;17710;52.520;13.352;2023-04-12T13:48:05;4.72;;;1.20;;
31043;SDS011;17710;52.520;13.352;2023-04-12T13:50:32;6.40;;;1.30;;
31043;SDS011;17710;52.520;13.352;2023-04-12T13:52:58;6.75;;;1.52;;
31043;SDS011;17710;52.520;13.352;2023-04-12T13:55:25;8.43;;;2.15;;
31043;SDS011;17710;52.520;13.352;2023-04-12T13:57:53;2.50;;;1.05;;
31043;SDS011;17710;52.520;13.352;2023-04-12T14:00:21;4.47;;;1.10;;
31043;SDS011;17710;52.520;13.352;2023-04-12T14:02:49;6.53;;;1.20;;
31043;SDS011;17710;52.520;13.352;2023-04-12T14:05:15;7.47;;;1.30;;
31043;SDS011;17710;52.520;13.352;2023-04-12T14:07:42;4.15;;;1.33;;
31043;SDS011;17710;52.520;13.352;2023-04-12T14:10:08;4.25;;;1.63;;
31043;SDS011;17710;52.520;13.352;2023-04-12T14:12:35;6.22;;;1.20;;
31043;SDS011;17710;52.520;13.352;2023-04-12T14:15:03;5.72;;;1.27;;
31043;SDS011;17710;52.520;13.352;2023-04-12T14:17:31;3.80;;;1.02;;
31043;SDS011;17710;52.520;13.352;2023-04-12T14:19:57;3.90;;;1.17;;
31043;SDS011;17710;52.520;13.352;2023-04-12T14:22:24;5.75;;;1.23;;
31043;SDS011;17710;52.520;13.352;2023-04-12T14:24:50;4.18;;;1.15;;
31043;SDS011;17710;52.520;13.352;2023-04-12T14:27:17;3.15;;;1.00;;
31043;SDS011;17710;52.520;13.352;2023-04-12T14:29:43;5.80;;;1.52;;
31043;SDS011;17710;52.520;13.352;2023-04-12T14:32:11;3.80;;;0.98;;
31043;SDS011;17710;52.520;13.352;2023-04-12T14:34:37;3.90;;;0.98;;
31043;SDS011;17710;52.520;13.352;2023-04-12T14:37:03;7.65;;;1.13;;
31043;SDS011;17710;52.520;13.352;2023-04-12T14:39:30;4.80;;;1.23;;
31043;SDS011;17710;52.520;13.352;2023-04-12T14:41:57;6.25;;;1.38;;
31043;SDS011;17710;52.520;13.352;2023-04-12T14:44:23;4.97;;;1.10;;
31043;SDS011;17710;52.520;13.352;2023-04-12T14:46:50;7.13;;;1.45;;
31043;SDS011;17710;52.520;13.352;2023-04-12T14:49:17;4.63;;;1.20;;
31043;SDS011;17710;52.520;13.352;2023-04-12T14:51:44;7.40;;;1.23;;
31043;SDS011;17710;52.520;13.352;2023-04-12T14:54:10;4.65;;;1.10;;